createdAt,value
2022-11-01T00:00:14.633Z,11.27
2022-11-01T00:03:04.171Z,11.77
2022-11-01T00:05:33.802Z,13.48
2022-11-01T00:08:04.471Z,11.88
2022-11-01T00:10:33.967Z,10.13
2022-11-01T00:13:05.407Z,9.95
2022-11-01T00:18:04.700Z,10.55
2022-11-01T00:20:34.239Z,10.00
2022-11-01T00:23:04.509Z,10.02
2022-11-01T00:25:33.971Z,8.88
2022-11-01T00:28:05.659Z,10.00
2022-11-01T00:30:37.932Z,9.98
2022-11-01T00:33:08.052Z,10.10
2022-11-01T00:35:38.399Z,9.43
2022-11-01T00:40:37.780Z,10.07
2022-11-01T00:43:09.528Z,10.88
2022-11-01T00:45:39.102Z,8.90
2022-11-01T00:48:09.217Z,8.45
2022-11-01T00:50:38.482Z,8.73
2022-11-01T00:53:08.932Z,9.60
2022-11-01T00:55:38.375Z,8.52
2022-11-01T00:58:09.919Z,9.85
2022-11-01T01:00:39.511Z,9.13
2022-11-01T01:03:09.886Z,9.63
2022-11-01T01:05:39.359Z,10.25
2022-11-01T01:08:09.523Z,9.32
2022-11-01T01:10:39.143Z,10.30
2022-11-01T01:13:10.625Z,9.43
2022-11-01T01:18:10.867Z,9.55
2022-11-01T01:20:40.747Z,9.25
2022-11-01T01:23:11.083Z,8.50
2022-11-01T01:25:41.822Z,8.68
2022-11-01T01:28:12.977Z,9.90
2022-11-01T01:35:46.939Z,8.10
2022-11-01T01:38:16.822Z,7.93
2022-11-01T01:40:46.156Z,8.13
2022-11-01T01:43:17.495Z,8.67
2022-11-01T01:45:47.293Z,8.23
2022-11-01T01:48:21.237Z,7.35
2022-11-01T01:50:57.487Z,7.13
2022-11-01T01:53:30.465Z,6.70
2022-11-01T01:56:02.534Z,7.18
2022-11-01T01:58:37.154Z,7.72
2022-11-01T02:01:07.056Z,8.07
2022-11-01T02:03:38.844Z,7.55
2022-11-01T02:06:11.752Z,7.97
2022-11-01T02:08:43.927Z,7.43
2022-11-01T02:11:14.270Z,6.18
2022-11-01T02:13:45.729Z,6.70
2022-11-01T02:19:02.022Z,5.75
2022-11-01T02:21:53.078Z,5.30
2022-11-01T02:25:11.236Z,5.43
2022-11-01T02:28:02.504Z,5.63
2022-11-01T02:30:43.687Z,5.45
2022-11-01T02:33:27.435Z,5.50
2022-11-01T02:36:03.264Z,5.45
2022-11-01T02:38:41.454Z,6.07
2022-11-01T02:41:14.857Z,6.18
2022-11-01T02:43:50.660Z,6.28
2022-11-01T02:46:40.470Z,5.93
2022-11-01T02:49:14.573Z,6.57
2022-11-01T02:51:46.763Z,7.05
2022-11-01T02:54:22.768Z,6.95
2022-11-01T02:56:53.154Z,7.68
2022-11-01T02:59:26.806Z,6.65
2022-11-01T03:02:02.513Z,6.03
2022-11-01T03:04:34.025Z,5.85
2022-11-01T03:07:08.372Z,6.45
2022-11-01T03:09:39.261Z,7.30
2022-11-01T03:12:14.924Z,6.47
2022-11-01T03:14:53.293Z,6.03
2022-11-01T03:17:29.242Z,6.40
2022-11-01T03:20:05.749Z,5.57
2022-11-01T03:22:44.112Z,5.97
2022-11-01T03:25:31.433Z,6.32
2022-11-01T03:28:04.659Z,5.78
2022-11-01T03:30:35.889Z,6.00
2022-11-01T03:33:06.493Z,6.32
2022-11-01T03:35:40.380Z,5.63
2022-11-01T03:38:15.760Z,5.80
2022-11-01T03:40:51.914Z,5.82
2022-11-01T03:43:24.639Z,5.47
2022-11-01T03:45:54.485Z,5.70
2022-11-01T03:48:25.026Z,5.30
2022-11-01T03:50:57.525Z,5.17
2022-11-01T03:53:27.775Z,5.75
2022-11-01T03:55:57.161Z,4.85
2022-11-01T03:58:41.982Z,5.85
2022-11-01T04:01:12.578Z,5.43
2022-11-01T04:03:43.182Z,6.00
2022-11-01T04:06:14.193Z,6.00
2022-11-01T04:08:44.449Z,5.47
2022-11-01T04:11:13.911Z,6.32
2022-11-01T04:13:43.924Z,5.40
2022-11-01T04:16:42.311Z,5.28
2022-11-01T04:19:30.061Z,6.50
2022-11-01T04:22:00.835Z,5.93
2022-11-01T04:24:30.786Z,6.38
2022-11-01T04:27:00.204Z,5.53
2022-11-01T04:29:30.191Z,6.28
2022-11-01T04:31:59.816Z,5.45
2022-11-01T04:34:44.808Z,5.65
2022-11-01T04:37:15.750Z,7.45
2022-11-01T04:39:45.923Z,6.20
2022-11-01T04:42:15.457Z,7.30
2022-11-01T04:44:47.318Z,7.32
2022-11-01T04:47:16.829Z,6.70
2022-11-01T04:49:46.973Z,6.88
2022-11-01T04:52:17.807Z,6.90
2022-11-01T04:54:47.891Z,6.72
2022-11-01T04:57:24.589Z,6.68
2022-11-01T04:59:55.017Z,7.80
2022-11-01T05:02:25.701Z,6.28
2022-11-01T05:04:55.792Z,6.07
2022-11-01T05:07:26.591Z,7.22
2022-11-01T05:09:56.258Z,7.20
2022-11-01T05:12:25.587Z,7.15
2022-11-01T05:14:56.883Z,7.40
2022-11-01T05:17:26.791Z,8.05
2022-11-01T05:19:57.099Z,7.05
2022-11-01T05:22:28.017Z,7.93
2022-11-01T05:24:58.122Z,7.63
2022-11-01T05:27:27.375Z,8.05
2022-11-01T05:29:57.406Z,7.65
2022-11-01T05:32:26.716Z,8.52
2022-11-01T05:34:56.260Z,7.88
2022-11-01T05:37:28.225Z,7.93
2022-11-01T05:39:58.312Z,9.05
2022-11-01T05:42:27.599Z,7.45
2022-11-01T05:44:57.521Z,8.00
2022-11-01T05:47:26.878Z,9.57
2022-11-01T05:49:56.808Z,8.93
2022-11-01T05:52:27.666Z,9.63
2022-11-01T05:54:57.572Z,10.05
2022-11-01T05:57:32.331Z,10.63
2022-11-01T06:00:03.504Z,12.15
2022-11-01T06:02:33.936Z,11.68
2022-11-01T06:05:04.238Z,13.02
2022-11-01T06:07:37.081Z,12.48
2022-11-01T06:10:08.133Z,13.05
2022-11-01T06:12:37.423Z,14.20
2022-11-01T06:15:07.843Z,15.52
2022-11-01T06:17:37.279Z,14.57
2022-11-01T06:20:07.934Z,15.57
2022-11-01T06:22:38.848Z,14.37
2022-11-01T06:25:09.732Z,17.45
2022-11-01T06:27:39.215Z,15.38
2022-11-01T06:30:10.589Z,16.75
2022-11-01T06:32:40.066Z,19.27
2022-11-01T06:35:11.018Z,20.45
2022-11-01T06:37:41.855Z,21.98
2022-11-01T06:40:13.504Z,24.23
2022-11-01T06:42:46.323Z,24.45
2022-11-01T06:45:17.065Z,25.25
2022-11-01T06:47:48.970Z,23.65
2022-11-01T06:50:19.179Z,21.88
2022-11-01T06:52:49.870Z,22.52
2022-11-01T06:55:19.492Z,22.27
2022-11-01T06:57:56.371Z,24.35
2022-11-01T07:00:27.177Z,23.52
2022-11-01T07:03:04.808Z,23.10
2022-11-01T07:05:37.259Z,24.33
2022-11-01T07:08:10.597Z,23.73
2022-11-01T07:10:41.811Z,22.45
2022-11-01T07:13:13.050Z,23.08
2022-11-01T07:15:42.859Z,22.98
2022-11-01T07:18:12.671Z,22.00
2022-11-01T07:23:20.713Z,21.85
2022-11-01T07:25:54.092Z,24.65
2022-11-01T07:28:23.651Z,20.58
2022-11-01T07:30:54.593Z,21.90
2022-11-01T07:33:24.754Z,20.65
2022-11-01T07:35:55.369Z,22.23
2022-11-01T07:38:26.377Z,22.60
2022-11-01T07:40:56.308Z,22.70
2022-11-01T07:43:25.622Z,20.83
2022-11-01T07:45:55.539Z,22.77
2022-11-01T07:48:25.011Z,20.13
2022-11-01T07:50:58.441Z,22.30
2022-11-01T07:53:29.417Z,21.00
2022-11-01T07:56:01.200Z,23.65
2022-11-01T07:58:31.121Z,22.63
2022-11-01T08:01:02.704Z,20.40
2022-11-01T08:03:32.292Z,20.67
2022-11-01T08:06:02.355Z,22.30
2022-11-01T08:08:33.113Z,23.35
2022-11-01T08:11:03.072Z,23.58
2022-11-01T08:13:32.659Z,24.15
2022-11-01T08:16:04.168Z,22.40
2022-11-01T08:18:33.550Z,21.73
2022-11-01T08:21:03.399Z,24.33
2022-11-01T08:23:34.112Z,24.30
2022-11-01T08:26:05.285Z,27.58
2022-11-01T08:28:34.560Z,25.92
2022-11-01T08:31:08.683Z,24.08
2022-11-01T08:33:38.207Z,25.85
2022-11-01T08:36:08.301Z,26.27
2022-11-01T08:38:39.248Z,28.33
2022-11-01T08:41:09.253Z,26.02
2022-11-01T08:43:40.587Z,28.08
2022-11-01T08:46:11.442Z,28.90
2022-11-01T08:48:40.719Z,29.02
2022-11-01T08:51:11.068Z,28.25
2022-11-01T08:53:41.800Z,32.22
2022-11-01T08:56:12.101Z,29.25
2022-11-01T08:58:41.318Z,32.30
2022-11-01T09:01:13.669Z,28.80
2022-11-01T09:03:42.981Z,27.35
2022-11-01T09:06:12.936Z,28.25
2022-11-01T09:08:43.930Z,29.77
2022-11-01T09:11:13.558Z,32.67
2022-11-01T09:13:42.932Z,34.63
2022-11-01T09:16:13.195Z,32.73
2022-11-01T09:18:42.607Z,33.90
2022-11-01T09:21:12.508Z,31.40
2022-11-01T09:23:43.297Z,37.47
2022-11-01T09:26:13.422Z,34.38
2022-11-01T09:28:42.806Z,33.60
2022-11-01T09:31:20.807Z,33.77
2022-11-01T09:33:50.811Z,34.38
2022-11-01T09:36:21.541Z,36.83
2022-11-01T09:38:52.544Z,32.73
2022-11-01T09:41:35.265Z,31.35
2022-11-01T09:44:06.771Z,32.22
2022-11-01T09:46:45.399Z,32.45
2022-11-01T09:49:21.864Z,32.05
2022-11-01T09:51:51.759Z,32.60
2022-11-01T09:54:25.363Z,36.75
2022-11-01T09:57:05.464Z,33.75
2022-11-01T09:59:43.653Z,35.25
2022-11-01T10:02:42.651Z,35.55
2022-11-01T10:05:28.827Z,33.88
2022-11-01T10:08:08.016Z,33.60
2022-11-01T10:10:45.808Z,32.80
2022-11-01T10:13:27.876Z,32.88
2022-11-01T10:16:04.779Z,33.75
2022-11-01T10:18:39.732Z,34.33
2022-11-01T10:21:14.341Z,36.03
2022-11-01T10:23:47.223Z,35.72
2022-11-01T10:26:22.671Z,34.38
2022-11-01T10:28:59.355Z,34.75
2022-11-01T10:31:30.432Z,33.28
2022-11-01T10:34:04.548Z,32.42
2022-11-01T10:42:15.020Z,31.52
2022-11-01T10:44:48.728Z,30.58
2022-11-01T10:47:20.900Z,27.83
2022-11-01T10:50:09.285Z,26.08
2022-11-01T10:52:50.619Z,25.65
2022-11-01T10:55:25.719Z,25.30
2022-11-01T10:57:59.620Z,26.70
2022-11-01T11:00:30.217Z,25.48
2022-11-01T11:03:02.860Z,23.13
2022-11-01T11:05:33.891Z,24.08
2022-11-01T11:08:07.707Z,21.50
2022-11-01T11:10:37.647Z,22.02
2022-11-01T11:13:09.464Z,22.55
2022-11-01T11:15:45.931Z,20.52
2022-11-01T11:18:26.041Z,21.48
2022-11-01T11:21:00.490Z,21.95
2022-11-01T11:23:33.467Z,48.08
2022-11-01T11:26:05.541Z,23.42
2022-11-01T11:28:44.522Z,20.92
2022-11-01T11:31:18.998Z,21.45
2022-11-01T11:33:55.304Z,19.98
2022-11-01T11:36:31.537Z,18.65
2022-11-01T11:39:01.886Z,17.23
2022-11-01T11:41:36.461Z,18.90
2022-11-01T11:44:40.399Z,20.17
2022-11-01T11:47:21.622Z,20.25
2022-11-01T11:49:53.985Z,20.52
2022-11-01T11:52:28.678Z,23.08
2022-11-01T11:54:58.456Z,21.52
2022-11-01T11:57:30.475Z,23.10
2022-11-01T12:00:05.456Z,22.88
2022-11-01T12:02:37.723Z,22.80
2022-11-01T12:05:09.554Z,22.27
2022-11-01T12:07:49.121Z,22.98
2022-11-01T12:10:32.623Z,23.55
2022-11-01T12:13:03.511Z,22.80
2022-11-01T12:15:41.194Z,22.42
2022-11-01T12:18:16.204Z,24.55
2022-11-01T12:20:50.847Z,24.13
2022-11-01T12:23:29.469Z,23.00
2022-11-01T12:26:01.215Z,24.73
2022-11-01T12:28:35.639Z,24.10
2022-11-01T12:31:13.127Z,24.88
2022-11-01T12:33:50.226Z,26.92
2022-11-01T12:36:22.056Z,24.58
2022-11-01T12:38:57.171Z,25.25
2022-11-01T12:41:32.350Z,23.88
2022-11-01T12:44:12.193Z,25.77
2022-11-01T12:46:48.999Z,24.02
2022-11-01T12:49:28.859Z,21.42
2022-11-01T12:52:03.527Z,21.63
2022-11-01T12:54:40.630Z,21.15
2022-11-01T12:57:18.969Z,20.92
2022-11-01T12:59:49.103Z,19.25
2022-11-01T13:02:33.720Z,21.40
2022-11-01T13:05:07.669Z,19.88
2022-11-01T13:07:57.506Z,55.00
2022-11-01T13:10:35.615Z,26.23
2022-11-01T13:13:15.818Z,15.30
2022-11-01T13:15:55.333Z,15.75
2022-11-01T13:18:36.816Z,15.70
2022-11-01T13:21:14.657Z,14.35
2022-11-01T13:23:49.805Z,14.15
2022-11-01T13:26:25.788Z,14.00
2022-11-01T13:29:04.246Z,14.77
2022-11-01T13:31:45.260Z,14.45
2022-11-01T13:34:28.076Z,16.65
2022-11-01T13:37:05.854Z,16.23
2022-11-01T13:39:42.034Z,17.40
2022-11-01T13:42:16.407Z,16.65
2022-11-01T13:44:49.274Z,16.08
2022-11-01T13:47:38.337Z,16.38
2022-11-01T13:50:39.810Z,16.95
2022-11-01T13:53:19.836Z,16.17
2022-11-01T13:55:57.040Z,16.75
2022-11-01T13:58:27.595Z,17.90
2022-11-01T14:00:57.824Z,17.20
2022-11-01T14:03:30.710Z,15.95
2022-11-01T14:09:36.057Z,19.23
2022-11-01T14:12:34.760Z,17.92
2022-11-01T14:15:25.609Z,17.90
2022-11-01T14:18:13.009Z,17.88
2022-11-01T14:20:51.956Z,19.48
2022-11-01T14:24:01.974Z,19.77
2022-11-01T14:26:38.426Z,18.95
2022-11-01T14:29:14.071Z,19.15
2022-11-01T14:31:48.639Z,19.50
2022-11-01T14:34:45.701Z,20.65
2022-11-01T14:37:24.678Z,22.00
2022-11-01T14:40:04.424Z,22.20
2022-11-01T14:42:40.805Z,23.33
2022-11-01T14:45:30.080Z,22.02
2022-11-01T14:48:03.185Z,22.83
2022-11-01T14:50:40.561Z,22.85
2022-11-01T14:53:18.495Z,22.75
2022-11-01T14:55:47.936Z,24.30
2022-11-01T14:58:21.355Z,24.48
2022-11-01T15:00:55.069Z,36.55
2022-11-01T15:03:25.187Z,135.90
2022-11-01T15:05:54.957Z,23.08
2022-11-01T15:08:28.210Z,21.52
2022-11-01T15:11:00.218Z,21.75
2022-11-01T15:13:32.800Z,21.75
2022-11-01T15:16:14.942Z,21.42
2022-11-01T15:18:49.905Z,21.98
2022-11-01T15:21:25.568Z,21.00
2022-11-01T15:23:59.382Z,20.10
2022-11-01T15:26:32.201Z,20.52
2022-11-01T15:29:04.717Z,20.38
2022-11-01T15:31:36.553Z,20.27
2022-11-01T15:34:21.670Z,19.17
2022-11-01T15:36:50.967Z,21.23
2022-11-01T15:39:22.922Z,21.17
2022-11-01T15:41:54.301Z,21.35
2022-11-01T15:44:27.764Z,22.17
2022-11-01T15:47:00.960Z,22.73
2022-11-01T15:49:34.388Z,20.75
2022-11-01T15:52:26.191Z,21.25
2022-11-01T15:55:02.734Z,22.13
2022-11-01T15:57:37.088Z,21.83
2022-11-01T16:00:09.926Z,21.55
2022-11-01T16:02:51.218Z,22.20
2022-11-01T16:05:24.478Z,24.20
2022-11-01T16:07:54.642Z,23.15
2022-11-01T16:10:27.587Z,23.67
2022-11-01T16:12:57.879Z,21.65
2022-11-01T16:20:34.441Z,19.58
2022-11-01T16:23:04.752Z,19.85
2022-11-01T16:25:35.964Z,21.05
2022-11-01T16:28:08.717Z,18.85
2022-11-01T16:30:45.798Z,18.27
2022-11-01T16:33:26.509Z,19.52
2022-11-01T16:38:43.635Z,18.27
2022-11-01T16:41:20.448Z,18.85
2022-11-01T16:43:51.283Z,18.25
2022-11-01T16:46:21.185Z,18.83
2022-11-01T16:48:54.745Z,18.23
2022-11-01T16:51:28.717Z,20.90
2022-11-01T16:53:59.530Z,21.95
2022-11-01T16:56:37.002Z,19.83
2022-11-01T16:59:10.415Z,19.63
2022-11-01T17:01:40.820Z,19.50
2022-11-01T17:04:14.629Z,18.73
2022-11-01T17:06:45.812Z,20.08
2022-11-01T17:09:17.139Z,21.80
2022-11-01T17:11:51.293Z,20.00
2022-11-01T17:14:22.251Z,18.65
2022-11-01T17:16:53.963Z,20.35
2022-11-01T17:19:29.697Z,20.85
2022-11-01T17:22:01.190Z,20.70
2022-11-01T17:27:05.458Z,20.58
2022-11-01T17:29:35.282Z,21.73
2022-11-01T17:32:09.786Z,22.58
2022-11-01T17:34:40.689Z,23.08
2022-11-01T17:37:17.263Z,22.73
2022-11-01T17:39:46.596Z,23.23
2022-11-01T17:42:16.512Z,23.27
2022-11-01T17:45:06.636Z,22.52
2022-11-01T17:47:36.382Z,23.25
2022-11-01T17:50:07.702Z,23.25
2022-11-01T17:52:37.612Z,26.42
2022-11-01T17:55:08.546Z,25.08
2022-11-01T17:57:39.062Z,23.90
2022-11-01T18:00:12.495Z,25.48
2022-11-01T18:02:43.025Z,23.17
2022-11-01T18:05:14.724Z,24.00
2022-11-01T18:07:47.898Z,23.63
2022-11-01T18:10:22.048Z,23.95
2022-11-01T18:13:08.191Z,24.77
2022-11-01T18:15:47.167Z,24.55
2022-11-01T18:18:27.319Z,23.50
2022-11-01T18:21:10.310Z,23.08
2022-11-01T18:23:42.180Z,23.27
2022-11-01T18:26:17.966Z,22.25
2022-11-01T18:28:49.434Z,23.75
2022-11-01T18:31:23.810Z,24.02
2022-11-01T18:34:00.299Z,22.02
2022-11-01T18:36:35.691Z,22.90
2022-11-01T18:39:25.135Z,23.13
2022-11-01T18:41:54.869Z,22.80
2022-11-01T18:44:26.245Z,23.77
2022-11-01T18:49:28.874Z,23.70
2022-11-01T18:52:00.203Z,23.23
2022-11-01T18:54:33.256Z,24.10
2022-11-01T18:57:14.976Z,26.67
2022-11-01T18:59:46.031Z,25.75
2022-11-01T19:02:17.511Z,24.45
2022-11-01T19:04:48.232Z,25.02
2022-11-01T19:07:22.907Z,26.67
2022-11-01T19:09:56.605Z,25.00
2022-11-01T19:12:29.913Z,26.52
2022-11-01T19:15:05.190Z,25.55
2022-11-01T19:17:39.350Z,26.85
2022-11-01T19:20:22.618Z,26.73
2022-11-01T19:22:57.690Z,27.63
2022-11-01T19:25:30.052Z,28.23
2022-11-01T19:28:03.301Z,28.40
2022-11-01T19:30:35.039Z,26.98
2022-11-01T19:33:18.640Z,28.75
2022-11-01T19:35:52.858Z,26.50
2022-11-01T19:38:26.572Z,28.65
2022-11-01T19:40:56.718Z,27.35
2022-11-01T19:43:28.121Z,28.90
2022-11-01T19:46:00.273Z,26.98
2022-11-01T19:48:31.906Z,28.75
2022-11-01T19:51:01.851Z,28.67
2022-11-01T19:53:34.412Z,29.52
2022-11-01T19:56:08.869Z,32.22
2022-11-01T19:58:45.693Z,29.70
2022-11-01T20:01:42.418Z,29.52
2022-11-01T20:04:27.210Z,29.13
2022-11-01T20:07:01.454Z,28.27
2022-11-01T20:09:36.480Z,30.83
2022-11-01T20:12:07.172Z,29.02
2022-11-01T20:14:37.899Z,30.20
2022-11-01T20:17:10.227Z,30.83
2022-11-01T20:19:39.559Z,29.90
2022-11-01T20:22:09.114Z,29.55
2022-11-01T20:24:39.844Z,30.50
2022-11-01T20:27:09.558Z,29.42
2022-11-01T20:29:39.509Z,29.80
2022-11-01T20:32:11.988Z,29.75
2022-11-01T20:34:41.471Z,27.13
2022-11-01T20:40:02.177Z,28.23
2022-11-01T20:42:31.801Z,29.63
2022-11-01T20:45:01.104Z,29.33
2022-11-01T20:47:30.878Z,28.00
2022-11-01T20:50:00.278Z,28.27
2022-11-01T20:52:45.438Z,29.10
2022-11-01T20:55:16.823Z,28.25
2022-11-01T20:57:46.566Z,27.55
2022-11-01T21:00:18.670Z,28.77
2022-11-01T21:02:49.301Z,25.13
2022-11-01T21:05:23.423Z,26.95
2022-11-01T21:07:58.564Z,25.48
2022-11-01T21:10:32.932Z,24.95
2022-11-01T21:13:06.968Z,26.35
2022-11-01T21:15:38.575Z,25.17
2022-11-01T21:18:35.927Z,27.00
2022-11-01T21:21:30.705Z,24.10
2022-11-01T21:24:01.716Z,26.02
2022-11-01T21:26:37.164Z,26.02
2022-11-01T21:29:17.115Z,24.70
2022-11-01T21:31:46.629Z,25.17
2022-11-01T21:34:26.252Z,24.80
2022-11-01T21:36:57.503Z,25.15
2022-11-01T21:39:29.155Z,24.20
2022-11-01T21:42:02.340Z,23.98
2022-11-01T21:44:37.059Z,23.73
2022-11-01T21:47:16.675Z,24.95
2022-11-01T21:49:46.808Z,27.90
2022-11-01T21:52:16.512Z,25.65
2022-11-01T21:54:46.493Z,25.70
2022-11-01T21:57:18.010Z,25.25
2022-11-01T21:59:47.983Z,28.58
2022-11-01T22:02:17.687Z,26.92
2022-11-01T22:04:47.660Z,27.00
2022-11-01T22:07:17.108Z,29.00
2022-11-01T22:09:47.186Z,29.27
2022-11-01T22:12:18.127Z,27.17
2022-11-01T22:14:47.974Z,29.42
2022-11-01T22:17:17.442Z,26.58
2022-11-01T22:19:47.299Z,26.02
2022-11-01T22:22:17.004Z,26.55
2022-11-01T22:24:47.326Z,23.52
2022-11-01T22:27:18.249Z,22.27
2022-11-01T22:29:48.462Z,20.65
2022-11-01T22:32:17.955Z,20.83
2022-11-01T22:34:48.220Z,19.77
2022-11-01T22:37:17.696Z,20.05
2022-11-01T22:39:52.888Z,16.55
2022-11-01T22:42:24.712Z,16.83
2022-11-01T22:44:55.147Z,16.85
2022-11-01T22:47:28.022Z,12.85
2022-11-01T22:50:01.176Z,12.68
2022-11-01T22:52:33.633Z,11.85
2022-11-01T22:55:07.182Z,11.50
2022-11-01T22:57:45.662Z,10.60
2022-11-01T23:00:39.251Z,11.00
2022-11-01T23:03:22.829Z,9.80
2022-11-01T23:05:54.676Z,10.55
2022-11-01T23:08:28.032Z,10.85
2022-11-01T23:10:59.035Z,10.55
2022-11-01T23:13:49.509Z,8.95
2022-11-01T23:16:25.098Z,10.07
2022-11-01T23:18:57.793Z,9.82
2022-11-01T23:21:29.241Z,9.73
2022-11-01T23:26:31.013Z,10.33
2022-11-01T23:29:02.358Z,10.30
2022-11-01T23:31:32.569Z,10.75
2022-11-01T23:34:02.085Z,10.55
2022-11-01T23:36:35.593Z,9.25
2022-11-01T23:39:09.224Z,9.65
2022-11-01T23:41:43.459Z,9.93
2022-11-01T23:44:26.042Z,10.40
2022-11-01T23:46:59.334Z,11.35
2022-11-01T23:49:32.018Z,10.93
2022-11-01T23:52:02.238Z,10.93
2022-11-01T23:54:37.363Z,11.93
2022-11-01T23:57:07.490Z,11.38
2022-11-01T23:59:39.499Z,11.70
